createdAt,value
2023-01-29T00:01:06.421Z,101321.20
2023-01-29T00:06:13.260Z,101314.20
2023-01-29T00:11:12.972Z,101300.80
2023-01-29T00:16:13.515Z,101296.60
2023-01-29T00:21:17.947Z,101293.00
2023-01-29T00:26:18.540Z,101275.00
2023-01-29T00:31:22.707Z,101273.40
2023-01-29T00:36:24.941Z,101278.40
2023-01-29T00:41:42.271Z,101277.80
2023-01-29T00:46:42.304Z,101267.00
2023-01-29T00:51:42.659Z,101272.60
2023-01-29T00:56:42.108Z,101259.60
2023-01-29T01:01:59.344Z,101257.20
2023-01-29T01:06:59.412Z,101244.20
2023-01-29T01:11:58.349Z,101235.60
2023-01-29T01:16:57.549Z,101220.20
2023-01-29T01:21:56.753Z,101218.20
2023-01-29T01:26:55.945Z,101213.00
2023-01-29T01:31:56.207Z,101211.20
2023-01-29T01:36:56.755Z,101210.00
2023-01-29T01:41:56.530Z,101215.00
2023-01-29T01:46:56.014Z,101213.20
2023-01-29T01:51:57.988Z,101213.40
2023-01-29T01:57:09.387Z,101220.40
2023-01-29T04:46:28.833Z,101124.60
2023-01-29T05:20:51.783Z,101116.80
2023-01-29T05:25:53.830Z,101109.20
2023-01-29T05:30:56.206Z,101098.80
2023-01-29T05:35:56.548Z,101101.20
2023-01-29T05:40:56.220Z,101087.00
2023-01-29T05:46:01.914Z,101083.40
2023-01-29T05:51:06.589Z,101078.20
2023-01-29T05:56:09.987Z,101078.00
2023-01-29T06:01:19.477Z,101065.60
2023-01-29T06:06:19.690Z,101072.80
2023-01-29T06:11:20.643Z,101079.60
2023-01-29T06:16:19.913Z,101079.60
2023-01-29T06:21:21.724Z,101075.80
2023-01-29T06:26:23.359Z,101085.00
2023-01-29T06:31:37.243Z,101089.80
2023-01-29T06:36:37.445Z,101081.80
2023-01-29T06:41:37.207Z,101082.40
2023-01-29T06:46:37.711Z,101084.20
2023-01-29T06:51:38.419Z,101081.60
2023-01-29T06:56:37.526Z,101093.00
2023-01-29T07:01:36.871Z,101092.80
2023-01-29T07:06:37.515Z,101092.20
2023-01-29T07:11:38.230Z,101070.80
2023-01-29T07:16:37.747Z,101063.80
2023-01-29T07:21:38.147Z,101062.60
2023-01-29T07:26:37.506Z,101065.80
2023-01-29T07:31:36.625Z,101069.20
2023-01-29T07:36:37.395Z,101087.40
2023-01-29T07:41:36.370Z,101087.40
2023-01-29T07:46:41.313Z,101091.00
2023-01-29T07:51:39.859Z,101088.80
2023-01-29T07:56:39.220Z,101085.00
2023-01-29T08:01:38.671Z,101076.60
2023-01-29T08:06:39.198Z,101069.60
2023-01-29T08:11:38.441Z,101074.40
2023-01-29T08:16:37.756Z,101066.60
2023-01-29T08:21:37.408Z,101045.80
2023-01-29T08:26:36.754Z,101042.80
2023-01-29T08:31:36.831Z,101048.80
2023-01-29T08:36:37.080Z,101059.80
2023-01-29T08:41:42.198Z,101065.40
2023-01-29T08:46:42.443Z,101058.00
2023-01-29T08:51:41.527Z,101055.00
2023-01-29T08:56:47.710Z,101047.80
2023-01-29T09:01:48.248Z,101050.00
2023-01-29T09:06:47.662Z,101047.00
2023-01-29T09:11:47.353Z,101037.60
2023-01-29T09:16:46.930Z,101026.80
2023-01-29T09:21:46.540Z,101025.60
2023-01-29T09:26:46.999Z,101025.60
2023-01-29T09:31:45.802Z,101029.00
2023-01-29T09:36:45.537Z,101018.00
2023-01-29T09:42:00.116Z,101019.00
2023-01-29T09:47:05.148Z,101011.20
2023-01-29T09:52:13.003Z,101001.00
2023-01-29T09:57:21.854Z,101003.00
2023-01-29T10:02:50.699Z,101006.00
2023-01-29T10:08:24.428Z,101008.40
2023-01-29T10:13:38.930Z,100999.40
2023-01-29T10:19:08.476Z,100980.20
2023-01-29T10:24:23.814Z,100972.20
2023-01-29T10:29:24.527Z,100976.60
2023-01-29T10:34:33.042Z,100975.80
2023-01-29T10:39:35.668Z,100972.20
2023-01-29T10:44:53.221Z,100964.60
2023-01-29T10:50:14.584Z,100972.20
2023-01-29T10:55:34.139Z,100979.40
2023-01-29T11:00:40.554Z,100956.00
2023-01-29T11:05:51.835Z,100967.20
2023-01-29T11:11:02.176Z,100951.60
2023-01-29T11:16:01.632Z,100943.00
2023-01-29T11:21:07.707Z,100935.60
2023-01-29T11:26:09.553Z,100927.80
2023-01-29T11:31:20.017Z,100910.00
2023-01-29T11:36:40.145Z,100891.20
2023-01-29T11:41:51.549Z,100887.20
2023-01-29T11:46:52.362Z,100876.00
2023-01-29T11:52:02.037Z,100871.00
2023-01-29T11:57:02.492Z,100866.60
2023-01-29T12:02:21.752Z,100864.20
2023-01-29T12:07:23.928Z,100850.40
2023-01-29T12:12:45.791Z,100844.20
2023-01-29T12:18:00.011Z,100835.00
2023-01-29T12:23:13.164Z,100829.60
2023-01-29T12:28:31.546Z,100817.60
2023-01-29T12:33:48.091Z,100823.80
2023-01-29T12:38:49.010Z,100822.20
2023-01-29T12:43:55.454Z,100798.60
2023-01-29T12:48:59.185Z,100804.80
2023-01-29T12:54:05.652Z,100803.60
2023-01-29T12:59:21.321Z,100787.80
2023-01-29T13:04:32.373Z,100786.40
2023-01-29T13:09:36.432Z,100785.20
2023-01-29T13:14:47.576Z,100799.00
2023-01-29T13:19:51.722Z,100809.20
2023-01-29T13:25:04.182Z,100807.40
2023-01-29T13:30:05.498Z,100799.20
2023-01-29T13:35:16.211Z,100797.40
2023-01-29T13:40:29.223Z,100792.80
2023-01-29T13:45:35.558Z,100772.80
2023-01-29T13:50:42.306Z,100756.20
2023-01-29T13:55:43.873Z,100771.00
2023-01-29T14:00:57.440Z,100768.40
2023-01-29T14:06:05.346Z,100770.20
2023-01-29T14:11:37.304Z,100775.40
2023-01-29T14:16:41.526Z,100785.40
2023-01-29T14:21:42.074Z,100798.80
2023-01-29T14:26:49.396Z,100799.40
2023-01-29T14:31:56.558Z,100793.60
2023-01-29T14:37:02.120Z,100786.00
2023-01-29T14:42:04.113Z,100784.20
2023-01-29T14:47:03.914Z,100768.20
2023-01-29T14:52:04.579Z,100742.40
2023-01-29T14:57:12.387Z,100746.80
2023-01-29T15:02:25.289Z,100767.60
2023-01-29T15:07:37.240Z,100773.00
2023-01-29T15:12:48.180Z,100761.60
2023-01-29T15:18:01.040Z,100750.00
2023-01-29T15:23:03.529Z,100740.40
2023-01-29T15:28:08.658Z,100738.00
2023-01-29T15:33:12.830Z,100735.00
2023-01-29T15:38:22.222Z,100718.80
2023-01-29T15:43:29.079Z,100710.60
2023-01-29T15:48:37.178Z,100716.20
2023-01-29T15:53:47.764Z,100719.80
2023-01-29T15:58:51.407Z,100710.60
2023-01-29T16:03:55.141Z,100701.40
2023-01-29T16:08:59.094Z,100707.60
2023-01-29T16:14:00.141Z,100709.60
2023-01-29T16:19:01.350Z,100717.40
2023-01-29T16:24:09.681Z,100718.00
2023-01-29T16:29:19.918Z,100717.00
2023-01-29T16:34:29.712Z,100721.00
2023-01-29T16:39:35.400Z,100725.40
2023-01-29T16:44:41.615Z,100726.00
2023-01-29T16:49:57.606Z,100746.00
2023-01-29T16:55:02.911Z,100735.60
2023-01-29T17:00:08.272Z,100730.40
2023-01-29T17:05:21.016Z,100730.40
2023-01-29T17:10:25.201Z,100714.00
2023-01-29T17:15:48.337Z,100703.40
2023-01-29T17:20:48.318Z,100697.60
2023-01-29T17:25:48.918Z,100693.60
2023-01-29T17:31:00.226Z,100687.00
2023-01-29T17:36:05.187Z,100679.80
2023-01-29T17:41:10.802Z,100675.80
2023-01-29T17:46:15.086Z,100664.20
2023-01-29T17:51:17.853Z,100647.80
2023-01-29T17:56:27.747Z,100644.60
2023-01-29T18:01:27.549Z,100625.60
2023-01-29T18:06:33.285Z,100622.00
2023-01-29T18:11:34.656Z,100609.40
2023-01-29T18:16:37.965Z,100590.00
2023-01-29T18:21:38.214Z,100585.20
2023-01-29T18:26:38.630Z,100595.40
2023-01-29T18:31:38.457Z,100591.60
2023-01-29T18:36:38.650Z,100587.80
2023-01-29T18:41:39.005Z,100584.80
2023-01-29T18:46:39.576Z,100590.20
2023-01-29T18:51:39.008Z,100587.20
2023-01-29T18:56:39.453Z,100579.80
2023-01-29T19:01:58.784Z,100565.80
2023-01-29T19:06:57.905Z,100557.60
2023-01-29T19:11:58.121Z,100566.40
2023-01-29T19:16:58.255Z,100563.20
2023-01-29T19:21:58.631Z,100560.80
2023-01-29T19:27:00.785Z,100558.20
2023-01-29T19:32:00.406Z,100546.40
2023-01-29T19:37:00.120Z,100536.40
2023-01-29T19:41:58.858Z,100526.20
2023-01-29T19:46:58.848Z,100523.00
2023-01-29T19:51:59.133Z,100528.80
2023-01-29T19:56:59.004Z,100523.00
2023-01-29T20:01:58.800Z,100512.80
2023-01-29T20:06:57.766Z,100509.80
2023-01-29T20:11:56.674Z,100509.20
2023-01-29T20:16:56.093Z,100495.80
2023-01-29T20:21:55.643Z,100482.40
2023-01-29T20:26:54.642Z,100472.40
2023-01-29T20:31:53.822Z,100464.60
2023-01-29T20:36:53.359Z,100460.60
2023-01-29T20:41:54.205Z,100452.00
2023-01-29T20:46:55.269Z,100434.00
2023-01-29T20:51:54.623Z,100426.00
2023-01-29T20:56:54.030Z,100426.80
2023-01-29T21:01:53.157Z,100417.00
2023-01-29T21:06:52.271Z,100416.60
2023-01-29T21:11:52.168Z,100412.00
2023-01-29T21:16:51.515Z,100403.60
2023-01-29T21:21:51.525Z,100403.80
2023-01-29T21:26:51.656Z,100405.80
2023-01-29T21:31:51.231Z,100405.60
2023-01-29T21:36:51.252Z,100395.80
2023-01-29T21:42:11.223Z,100390.00
2023-01-29T21:47:13.808Z,100393.60
2023-01-29T21:52:15.751Z,100387.00
2023-01-29T21:57:18.513Z,100371.80
2023-01-29T22:02:21.157Z,100368.40
2023-01-29T22:07:26.994Z,100354.40
2023-01-29T22:13:01.880Z,100352.00
2023-01-29T22:18:20.068Z,100342.40
2023-01-29T22:23:19.507Z,100325.00
2023-01-29T22:28:20.772Z,100314.60
2023-01-29T22:33:22.644Z,100299.60
2023-01-29T22:38:23.564Z,100290.00
2023-01-29T22:43:26.043Z,100281.60
2023-01-29T22:48:34.385Z,100262.00
2023-01-29T22:53:37.009Z,100252.80
2023-01-29T22:58:37.910Z,100244.40
2023-01-29T23:03:37.663Z,100236.20
2023-01-29T23:08:38.617Z,100219.20
2023-01-29T23:13:37.963Z,100212.80
2023-01-29T23:18:37.703Z,100200.40
2023-01-29T23:23:39.093Z,100196.80
2023-01-29T23:28:38.355Z,100188.20
2023-01-29T23:33:37.735Z,100189.40
2023-01-29T23:38:37.552Z,100178.40
2023-01-29T23:43:37.859Z,100171.40
2023-01-29T23:48:37.890Z,100153.00
2023-01-29T23:53:38.309Z,100146.60
2023-01-29T23:58:42.355Z,100147.40
